sensor_id;sensor_type;location;lat;lon;timestamp;pressure;altitude;pressure_sealevel;temperature;humidity
21086;BME280;34247;50.064;19.970;2022-10-16T00:00:02;99459.44;;;16.44;71.02
21086;BME280;34247;50.064;19.970;2022-10-16T00:01:11;99457.75;;;16.43;71.22
21086;BME280;34247;50.064;19.970;2022-10-16T00:02:25;99455.22;;;16.41;71.42
21086;BME280;34247;50.064;19.970;2022-10-16T00:03:40;99460.03;;;16.38;71.17
21086;BME280;34247;50.064;19.970;2022-10-16T00:04:49;99457.19;;;16.39;71.85
21086;BME280;34247;50.064;19.970;2022-10-16T00:06:01;99461.72;;;16.39;71.47
21086;BME280;34247;50.064;19.970;2022-10-16T00:07:05;99461.41;;;16.42;70.98
21086;BME280;34247;50.064;19.970;2022-10-16T00:08:13;99462.25;;;16.42;70.96
21086;BME280;34247;50.064;19.970;2022-10-16T00:09:18;99465.78;;;16.43;71.11
21086;BME280;34247;50.064;19.970;2022-10-16T00:10:22;99460.56;;;16.41;71.23
21086;BME280;34247;50.064;19.970;2022-10-16T00:11:37;99463.25;;;16.41;70.95
21086;BME280;34247;50.064;19.970;2022-10-16T00:12:42;99463.25;;;16.41;71.04
21086;BME280;34247;50.064;19.970;2022-10-16T00:14:13;99466.78;;;16.42;71.00
21086;BME280;34247;50.064;19.970;2022-10-16T00:15:17;99464.38;;;16.39;71.14
21086;BME280;34247;50.064;19.970;2022-10-16T00:16:21;99464.66;;;16.36;71.29
21086;BME280;34247;50.064;19.970;2022-10-16T00:17:27;99469.88;;;16.37;71.31
21086;BME280;34247;50.064;19.970;2022-10-16T00:18:32;99469.88;;;16.37;70.93
21086;BME280;34247;50.064;19.970;2022-10-16T00:19:40;99467.31;;;16.36;71.29
21086;BME280;34247;50.064;19.970;2022-10-16T00:20:49;99479.72;;;16.37;71.19
21086;BME280;34247;50.064;19.970;2022-10-16T00:21:55;99473.66;;;16.35;70.57
21086;BME280;34247;50.064;19.970;2022-10-16T00:23:07;99466.91;;;16.31;70.42
21086;BME280;34247;50.064;19.970;2022-10-16T00:24:11;99474.34;;;16.27;70.61
21086;BME280;34247;50.064;19.970;2022-10-16T00:25:16;99484.81;;;16.30;70.76
21086;BME280;34247;50.064;19.970;2022-10-16T00:26:21;99485.78;;;16.29;70.75
21086;BME280;34247;50.064;19.970;2022-10-16T00:27:24;99482.25;;;16.28;70.74
21086;BME280;34247;50.064;19.970;2022-10-16T00:28:28;99486.75;;;16.28;70.78
21086;BME280;34247;50.064;19.970;2022-10-16T00:29:33;99488.03;;;16.24;71.03
21086;BME280;34247;50.064;19.970;2022-10-16T00:30:41;99485.34;;;16.24;71.13
21086;BME280;34247;50.064;19.970;2022-10-16T00:31:45;99489.88;;;16.23;71.32
21086;BME280;34247;50.064;19.970;2022-10-16T00:32:49;99481.81;;;16.23;71.51
21086;BME280;34247;50.064;19.970;2022-10-16T00:33:52;99496.91;;;16.24;71.53
21086;BME280;34247;50.064;19.970;2022-10-16T00:34:56;99490.84;;;16.22;71.83
21086;BME280;34247;50.064;19.970;2022-10-16T00:36:02;99485.34;;;16.24;71.32
21086;BME280;34247;50.064;19.970;2022-10-16T00:37:07;99483.66;;;16.23;71.51
21086;BME280;34247;50.064;19.970;2022-10-16T00:38:11;99489.03;;;16.23;71.50
21086;BME280;34247;50.064;19.970;2022-10-16T00:39:16;99492.66;;;16.22;71.53
21086;BME280;34247;50.064;19.970;2022-10-16T00:40:24;99493.53;;;16.22;71.47
21086;BME280;34247;50.064;19.970;2022-10-16T00:41:29;99488.16;;;16.22;71.49
21086;BME280;34247;50.064;19.970;2022-10-16T00:42:37;99493.38;;;16.24;71.21
21086;BME280;34247;50.064;19.970;2022-10-16T00:43:58;99500.56;;;16.23;71.55
21086;BME280;34247;50.064;19.970;2022-10-16T00:45:05;99490.72;;;16.24;71.65
21086;BME280;34247;50.064;19.970;2022-10-16T00:46:40;99500.56;;;16.23;72.10
21086;BME280;34247;50.064;19.970;2022-10-16T00:47:48;99497.06;;;16.23;71.75
21086;BME280;34247;50.064;19.970;2022-10-16T00:49:16;99494.47;;;16.21;72.13
21086;BME280;34247;50.064;19.970;2022-10-16T00:50:30;99498.00;;;16.22;71.82
21086;BME280;34247;50.064;19.970;2022-10-16T00:51:43;99510.44;;;16.23;71.93
21086;BME280;34247;50.064;19.970;2022-10-16T00:52:50;99504.25;;;16.22;71.76
21086;BME280;34247;50.064;19.970;2022-10-16T00:53:57;99502.41;;;16.23;71.76
21086;BME280;34247;50.064;19.970;2022-10-16T00:55:06;99501.56;;;16.22;71.92
21086;BME280;34247;50.064;19.970;2022-10-16T00:56:13;99495.22;;;16.23;71.94
21086;BME280;34247;50.064;19.970;2022-10-16T00:57:17;99500.56;;;16.23;71.72
21086;BME280;34247;50.064;19.970;2022-10-16T00:58:21;99496.91;;;16.24;71.61
21086;BME280;34247;50.064;19.970;2022-10-16T00:59:41;99497.75;;;16.25;71.86
21086;BME280;34247;50.064;19.970;2022-10-16T01:00:49;99502.25;;;16.24;71.67
21086;BME280;34247;50.064;19.970;2022-10-16T01:01:55;99496.91;;;16.24;72.00
21086;BME280;34247;50.064;19.970;2022-10-16T01:03:22;99496.06;;;16.24;71.95
21086;BME280;34247;50.064;19.970;2022-10-16T01:04:36;99501.41;;;16.24;72.37
21086;BME280;34247;50.064;19.970;2022-10-16T01:10:38;99509.47;;;16.24;72.99
21086;BME280;34247;50.064;19.970;2022-10-16T01:12:00;99500.81;;;16.20;73.03
21086;BME280;34247;50.064;19.970;2022-10-16T01:13:21;99507.16;;;16.19;72.98
21086;BME280;34247;50.064;19.970;2022-10-16T01:16:17;99503.78;;;16.17;73.52
21086;BME280;34247;50.064;19.970;2022-10-16T01:17:49;99506.47;;;16.17;73.16
21086;BME280;34247;50.064;19.970;2022-10-16T01:19:09;99505.63;;;16.17;73.49
21086;BME280;34247;50.064;19.970;2022-10-16T01:21:36;99507.69;;;16.13;72.71
21086;BME280;34247;50.064;19.970;2022-10-16T01:24:48;99504.03;;;16.14;72.72
21086;BME280;34247;50.064;19.970;2022-10-16T01:27:28;99500.50;;;16.14;73.50
21086;BME280;34247;50.064;19.970;2022-10-16T01:29:05;99500.50;;;16.14;73.76
21086;BME280;34247;50.064;19.970;2022-10-16T01:30:26;99499.81;;;16.12;73.50
21086;BME280;34247;50.064;19.970;2022-10-16T01:31:39;99508.84;;;16.11;72.94
21086;BME280;34247;50.064;19.970;2022-10-16T01:33:19;99507.16;;;16.10;72.83
21086;BME280;34247;50.064;19.970;2022-10-16T01:34:35;99505.31;;;16.10;72.45
21086;BME280;34247;50.064;19.970;2022-10-16T01:35:48;99503.63;;;16.09;72.11
21086;BME280;34247;50.064;19.970;2022-10-16T01:37:05;99507.00;;;16.11;72.60
21086;BME280;34247;50.064;19.970;2022-10-16T01:38:36;99507.84;;;16.12;72.97
21086;BME280;34247;50.064;19.970;2022-10-16T01:39:45;99511.38;;;16.12;73.25
21086;BME280;34247;50.064;19.970;2022-10-16T01:40:59;99507.56;;;16.15;73.19
21086;BME280;34247;50.064;19.970;2022-10-16T01:42:13;99515.75;;;16.13;73.15
21086;BME280;34247;50.064;19.970;2022-10-16T01:43:25;99505.88;;;16.14;73.04
21086;BME280;34247;50.064;19.970;2022-10-16T01:44:33;99515.75;;;16.13;73.01
21086;BME280;34247;50.064;19.970;2022-10-16T01:45:45;99511.22;;;16.14;73.20
21086;BME280;34247;50.064;19.970;2022-10-16T01:46:52;99507.56;;;16.15;72.97
21086;BME280;34247;50.064;19.970;2022-10-16T01:48:00;99521.94;;;16.14;73.01
21086;BME280;34247;50.064;19.970;2022-10-16T01:49:10;99517.44;;;16.14;72.95
21086;BME280;34247;50.064;19.970;2022-10-16T01:50:20;99511.13;;;16.15;73.55
21086;BME280;34247;50.064;19.970;2022-10-16T01:51:28;99512.06;;;16.14;73.08
21086;BME280;34247;50.064;19.970;2022-10-16T01:52:41;99523.63;;;16.15;73.47
21086;BME280;34247;50.064;19.970;2022-10-16T01:53:55;99525.47;;;16.14;73.66
21086;BME280;34247;50.064;19.970;2022-10-16T01:55:05;99526.44;;;16.13;73.67
21086;BME280;34247;50.064;19.970;2022-10-16T01:56:13;99520.25;;;16.13;73.67
21086;BME280;34247;50.064;19.970;2022-10-16T01:57:21;99531.81;;;16.13;73.77
21086;BME280;34247;50.064;19.970;2022-10-16T01:58:30;99518.69;;;16.10;73.42
21086;BME280;34247;50.064;19.970;2022-10-16T01:59:47;99515.19;;;16.10;74.14
21086;BME280;34247;50.064;19.970;2022-10-16T02:02:43;99522.38;;;16.09;74.22
21086;BME280;34247;50.064;19.970;2022-10-16T02:06:26;99526.03;;;16.08;74.60
21086;BME280;34247;50.064;19.970;2022-10-16T02:07:36;99529.56;;;16.09;74.47
21086;BME280;34247;50.064;19.970;2022-10-16T02:09:34;99520.91;;;16.05;74.20
21086;BME280;34247;50.064;19.970;2022-10-16T02:10:49;99529.22;;;16.02;74.31
21086;BME280;34247;50.064;19.970;2022-10-16T02:12:27;99532.03;;;16.00;74.39
21086;BME280;34247;50.064;19.970;2022-10-16T02:13:48;99528.63;;;15.98;74.65
21086;BME280;34247;50.064;19.970;2022-10-16T02:14:53;99528.63;;;15.98;74.31
21086;BME280;34247;50.064;19.970;2022-10-16T02:15:58;99529.47;;;15.99;74.25
21086;BME280;34247;50.064;19.970;2022-10-16T02:17:14;99524.97;;;15.99;74.41
21086;BME280;34247;50.064;19.970;2022-10-16T02:18:19;99527.78;;;15.98;74.53
21086;BME280;34247;50.064;19.970;2022-10-16T02:19:23;99523.41;;;15.97;74.37
21086;BME280;34247;50.064;19.970;2022-10-16T02:20:47;99525.63;;;15.92;74.38
21086;BME280;34247;50.064;19.970;2022-10-16T02:22:00;99521.88;;;15.94;74.04
21086;BME280;34247;50.064;19.970;2022-10-16T02:23:12;99527.31;;;15.93;74.22
21086;BME280;34247;50.064;19.970;2022-10-16T02:26:43;99526.63;;;15.91;74.96
21086;BME280;34247;50.064;19.970;2022-10-16T02:29:21;99525.91;;;15.89;74.53
21086;BME280;34247;50.064;19.970;2022-10-16T02:31:46;99532.97;;;15.90;74.70
21086;BME280;34247;50.064;19.970;2022-10-16T02:32:56;99529.56;;;15.88;74.63
21086;BME280;34247;50.064;19.970;2022-10-16T02:34:09;99526.06;;;15.87;74.52
21086;BME280;34247;50.064;19.970;2022-10-16T02:35:20;99535.63;;;15.90;74.68
21086;BME280;34247;50.064;19.970;2022-10-16T02:36:29;99525.91;;;15.89;74.46
21086;BME280;34247;50.064;19.970;2022-10-16T02:37:42;99532.25;;;15.88;74.77
21086;BME280;34247;50.064;19.970;2022-10-16T02:38:56;99535.06;;;15.86;74.54
21086;BME280;34247;50.064;19.970;2022-10-16T02:40:05;99526.16;;;15.86;74.62
21086;BME280;34247;50.064;19.970;2022-10-16T02:41:23;99529.97;;;15.83;75.15
21086;BME280;34247;50.064;19.970;2022-10-16T02:42:37;99528.13;;;15.84;75.03
21086;BME280;34247;50.064;19.970;2022-10-16T02:43:42;99525.47;;;15.84;74.83
21086;BME280;34247;50.064;19.970;2022-10-16T02:44:47;99526.44;;;15.83;75.12
21086;BME280;34247;50.064;19.970;2022-10-16T02:45:59;99538.00;;;15.83;75.15
21086;BME280;34247;50.064;19.970;2022-10-16T02:47:06;99530.81;;;15.84;74.96
21086;BME280;34247;50.064;19.970;2022-10-16T02:48:19;99534.59;;;15.81;75.57
21086;BME280;34247;50.064;19.970;2022-10-16T02:49:33;99526.56;;;15.81;75.33
21086;BME280;34247;50.064;19.970;2022-10-16T02:50:42;99523.06;;;15.81;75.31
21086;BME280;34247;50.064;19.970;2022-10-16T02:51:55;99522.31;;;15.79;75.21
21086;BME280;34247;50.064;19.970;2022-10-16T02:53:00;99533.91;;;15.79;75.24
21086;BME280;34247;50.064;19.970;2022-10-16T02:54:08;99522.31;;;15.79;75.42
21086;BME280;34247;50.064;19.970;2022-10-16T02:55:17;99530.34;;;15.79;75.42
21086;BME280;34247;50.064;19.970;2022-10-16T02:56:26;99527.09;;;15.75;75.93
21086;BME280;34247;50.064;19.970;2022-10-16T02:57:34;99529.19;;;15.71;76.51
21086;BME280;34247;50.064;19.970;2022-10-16T02:58:58;99529.22;;;15.60;77.41
21086;BME280;34247;50.064;19.970;2022-10-16T03:00:03;99530.72;;;15.64;76.76
21086;BME280;34247;50.064;19.970;2022-10-16T03:01:10;99529.59;;;15.67;76.63
21086;BME280;34247;50.064;19.970;2022-10-16T03:02:26;99539.16;;;15.69;76.26
21086;BME280;34247;50.064;19.970;2022-10-16T03:03:37;99539.16;;;15.69;76.37
21086;BME280;34247;50.064;19.970;2022-10-16T03:05:01;99535.66;;;15.69;76.17
21086;BME280;34247;50.064;19.970;2022-10-16T03:06:05;99546.50;;;15.67;76.48
21086;BME280;34247;50.064;19.970;2022-10-16T03:07:13;99537.47;;;15.68;76.31
21086;BME280;34247;50.064;19.970;2022-10-16T03:08:17;99539.31;;;15.68;76.13
21086;BME280;34247;50.064;19.970;2022-10-16T03:09:21;99537.47;;;15.68;76.71
21086;BME280;34247;50.064;19.970;2022-10-16T03:10:24;99539.16;;;15.69;76.76
21086;BME280;34247;50.064;19.970;2022-10-16T03:11:28;99536.50;;;15.69;76.82
21086;BME280;34247;50.064;19.970;2022-10-16T03:12:32;99535.78;;;15.67;77.52
21086;BME280;34247;50.064;19.970;2022-10-16T03:13:36;99530.44;;;15.67;77.23
21086;BME280;34247;50.064;19.970;2022-10-16T03:14:40;99527.75;;;15.67;76.91
21086;BME280;34247;50.064;19.970;2022-10-16T03:15:44;99539.44;;;15.66;76.74
21086;BME280;34247;50.064;19.970;2022-10-16T03:16:48;99533.38;;;15.64;77.14
21086;BME280;34247;50.064;19.970;2022-10-16T03:17:52;99531.41;;;15.66;77.23
21086;BME280;34247;50.064;19.970;2022-10-16T03:18:55;99528.75;;;15.66;77.33
21086;BME280;34247;50.064;19.970;2022-10-16T03:19:59;99530.72;;;15.64;77.65
21086;BME280;34247;50.064;19.970;2022-10-16T03:21:03;99535.94;;;15.66;77.43
21086;BME280;34247;50.064;19.970;2022-10-16T03:22:07;99534.09;;;15.66;77.43
21086;BME280;34247;50.064;19.970;2022-10-16T03:23:11;99532.25;;;15.67;77.54
21086;BME280;34247;50.064;19.970;2022-10-16T03:24:15;99535.09;;;15.65;77.42
21086;BME280;34247;50.064;19.970;2022-10-16T03:25:19;99528.88;;;15.65;77.51
21086;BME280;34247;50.064;19.970;2022-10-16T03:26:22;99525.72;;;15.60;77.86
21086;BME280;34247;50.064;19.970;2022-10-16T03:27:26;99531.06;;;15.60;77.66
21086;BME280;34247;50.064;19.970;2022-10-16T03:28:31;99532.03;;;15.59;77.91
21086;BME280;34247;50.064;19.970;2022-10-16T03:29:34;99540.91;;;15.59;77.54
21086;BME280;34247;50.064;19.970;2022-10-16T03:30:38;99537.41;;;15.59;77.55
21086;BME280;34247;50.064;19.970;2022-10-16T03:31:43;99537.63;;;15.56;78.38
21086;BME280;34247;50.064;19.970;2022-10-16T03:32:47;99544.94;;;15.54;78.32
21086;BME280;34247;50.064;19.970;2022-10-16T03:33:50;99545.78;;;15.54;78.01
21086;BME280;34247;50.064;19.970;2022-10-16T03:34:54;99545.78;;;15.54;78.13
21086;BME280;34247;50.064;19.970;2022-10-16T03:36:00;99548.47;;;15.54;78.16
21086;BME280;34247;50.064;19.970;2022-10-16T03:37:03;99537.78;;;15.54;78.09
21086;BME280;34247;50.064;19.970;2022-10-16T03:38:07;99550.16;;;15.55;78.08
21086;BME280;34247;50.064;19.970;2022-10-16T03:39:11;99552.84;;;15.55;78.27
21086;BME280;34247;50.064;19.970;2022-10-16T03:40:15;99551.84;;;15.56;78.10
21086;BME280;34247;50.064;19.970;2022-10-16T03:41:19;99555.50;;;15.55;78.25
21086;BME280;34247;50.064;19.970;2022-10-16T03:42:23;99555.50;;;15.55;77.93
21086;BME280;34247;50.064;19.970;2022-10-16T03:43:27;99553.97;;;15.53;78.05
21086;BME280;34247;50.064;19.970;2022-10-16T03:44:32;99564.66;;;15.53;78.25
21086;BME280;34247;50.064;19.970;2022-10-16T03:45:35;99559.31;;;15.53;78.15
21086;BME280;34247;50.064;19.970;2022-10-16T03:46:39;99561.28;;;15.51;78.73
21086;BME280;34247;50.064;19.970;2022-10-16T03:47:44;99564.91;;;15.50;78.46
21086;BME280;34247;50.064;19.970;2022-10-16T03:48:48;99569.31;;;15.51;78.63
21086;BME280;34247;50.064;19.970;2022-10-16T03:49:52;99563.09;;;15.50;78.60
21086;BME280;34247;50.064;19.970;2022-10-16T03:50:56;99567.72;;;15.48;78.58
21086;BME280;34247;50.064;19.970;2022-10-16T03:52:00;99570.25;;;15.50;78.93
21086;BME280;34247;50.064;19.970;2022-10-16T03:53:03;99571.13;;;15.50;79.24
21086;BME280;34247;50.064;19.970;2022-10-16T03:54:09;99573.81;;;15.50;79.16
21086;BME280;34247;50.064;19.970;2022-10-16T03:55:13;99578.41;;;15.48;79.02
21086;BME280;34247;50.064;19.970;2022-10-16T03:56:17;99577.84;;;15.44;79.89
21086;BME280;34247;50.064;19.970;2022-10-16T03:57:21;99566.28;;;15.44;79.47
21086;BME280;34247;50.064;19.970;2022-10-16T03:58:26;99568.22;;;15.42;79.83
21086;BME280;34247;50.064;19.970;2022-10-16T03:59:30;99579.31;;;15.37;80.04
21086;BME280;34247;50.064;19.970;2022-10-16T04:00:34;99578.47;;;15.37;80.22
21086;BME280;34247;50.064;19.970;2022-10-16T04:01:38;99574.81;;;15.38;80.28
21086;BME280;34247;50.064;19.970;2022-10-16T04:02:42;99578.59;;;15.35;80.25
21086;BME280;34247;50.064;19.970;2022-10-16T04:03:46;99579.97;;;15.30;81.19
21086;BME280;34247;50.064;19.970;2022-10-16T04:04:51;99577.16;;;15.31;80.64
21086;BME280;34247;50.064;19.970;2022-10-16T04:05:55;99586.03;;;15.32;80.79
21086;BME280;34247;50.064;19.970;2022-10-16T04:06:58;99578.84;;;15.32;80.56
21086;BME280;34247;50.064;19.970;2022-10-16T04:08:03;99580.41;;;15.35;80.43
21086;BME280;34247;50.064;19.970;2022-10-16T04:09:07;99591.09;;;15.35;80.74
21086;BME280;34247;50.064;19.970;2022-10-16T04:10:11;99586.50;;;15.37;80.17
21086;BME280;34247;50.064;19.970;2022-10-16T04:11:14;99583.69;;;15.38;80.52
21086;BME280;34247;50.064;19.970;2022-10-16T04:12:19;99582.84;;;15.38;80.53
21086;BME280;34247;50.064;19.970;2022-10-16T04:13:24;99588.06;;;15.39;80.53
21086;BME280;34247;50.064;19.970;2022-10-16T04:14:28;99595.09;;;15.40;80.48
21086;BME280;34247;50.064;19.970;2022-10-16T04:15:34;99582.59;;;15.41;80.47
21086;BME280;34247;50.064;19.970;2022-10-16T04:16:38;99592.44;;;15.40;80.50
21086;BME280;34247;50.064;19.970;2022-10-16T04:17:42;99591.34;;;15.43;80.61
21086;BME280;34247;50.064;19.970;2022-10-16T04:18:46;99588.78;;;15.41;80.43
21086;BME280;34247;50.064;19.970;2022-10-16T04:19:53;99589.63;;;15.42;80.75
21086;BME280;34247;50.064;19.970;2022-10-16T04:21:02;99594.97;;;15.42;81.61
21086;BME280;34247;50.064;19.970;2022-10-16T04:22:05;99583.44;;;15.41;80.69
21086;BME280;34247;50.064;19.970;2022-10-16T04:23:10;99584.28;;;15.42;81.01
21086;BME280;34247;50.064;19.970;2022-10-16T04:24:13;99584.28;;;15.42;80.91
21086;BME280;34247;50.064;19.970;2022-10-16T04:25:17;99587.69;;;15.44;80.71
21086;BME280;34247;50.064;19.970;2022-10-16T04:26:22;99587.69;;;15.44;80.79
21086;BME280;34247;50.064;19.970;2022-10-16T04:27:25;99583.19;;;15.44;80.96
21086;BME280;34247;50.064;19.970;2022-10-16T04:28:30;99594.97;;;15.42;81.57
21086;BME280;34247;50.064;19.970;2022-10-16T04:29:35;99589.88;;;15.39;81.38
21086;BME280;34247;50.064;19.970;2022-10-16T04:30:39;99591.72;;;15.38;81.51
21086;BME280;34247;50.064;19.970;2022-10-16T04:31:43;99589.03;;;15.38;81.43
21086;BME280;34247;50.064;19.970;2022-10-16T04:32:51;99596.47;;;15.35;81.87
21086;BME280;34247;50.064;19.970;2022-10-16T04:33:55;99596.00;;;15.30;82.11
21086;BME280;34247;50.064;19.970;2022-10-16T04:34:59;99592.34;;;15.31;81.73
21086;BME280;34247;50.064;19.970;2022-10-16T04:36:06;99594.19;;;15.30;82.28
21086;BME280;34247;50.064;19.970;2022-10-16T04:37:10;99593.56;;;15.27;82.45
21086;BME280;34247;50.064;19.970;2022-10-16T04:38:14;99595.25;;;15.28;82.37
21086;BME280;34247;50.064;19.970;2022-10-16T04:39:18;99591.75;;;15.27;82.52
21086;BME280;34247;50.064;19.970;2022-10-16T04:40:22;99595.41;;;15.26;82.10
21086;BME280;34247;50.064;19.970;2022-10-16T04:41:26;99591.88;;;15.26;82.37
21086;BME280;34247;50.064;19.970;2022-10-16T04:42:29;99591.88;;;15.26;82.01
21086;BME280;34247;50.064;19.970;2022-10-16T04:43:34;99588.50;;;15.24;82.27
21086;BME280;34247;50.064;19.970;2022-10-16T04:44:38;99594.81;;;15.23;82.40
21086;BME280;34247;50.064;19.970;2022-10-16T04:45:42;99594.81;;;15.23;82.46
21086;BME280;34247;50.064;19.970;2022-10-16T04:46:46;99591.31;;;15.22;82.50
21086;BME280;34247;50.064;19.970;2022-10-16T04:47:50;99598.47;;;15.22;82.54
21086;BME280;34247;50.064;19.970;2022-10-16T04:48:53;99596.03;;;15.18;82.90
21086;BME280;34247;50.064;19.970;2022-10-16T04:49:57;99596.88;;;15.19;83.13
21086;BME280;34247;50.064;19.970;2022-10-16T04:51:03;99601.78;;;15.14;83.51
21086;BME280;34247;50.064;19.970;2022-10-16T04:52:07;99600.81;;;15.15;82.84
21086;BME280;34247;50.064;19.970;2022-10-16T04:53:13;99598.22;;;15.13;83.06
21086;BME280;34247;50.064;19.970;2022-10-16T04:54:17;99602.88;;;15.11;82.95
21086;BME280;34247;50.064;19.970;2022-10-16T04:55:20;99601.31;;;15.09;83.20
21086;BME280;34247;50.064;19.970;2022-10-16T04:56:24;99594.13;;;15.09;83.63
21086;BME280;34247;50.064;19.970;2022-10-16T04:57:29;99597.91;;;15.07;83.24
21086;BME280;34247;50.064;19.970;2022-10-16T04:58:33;99602.38;;;15.06;83.71
21086;BME280;34247;50.064;19.970;2022-10-16T04:59:36;99604.22;;;15.06;83.51
21086;BME280;34247;50.064;19.970;2022-10-16T05:00:40;99606.88;;;15.06;83.51
21086;BME280;34247;50.064;19.970;2022-10-16T05:01:44;99605.06;;;15.06;83.24
21086;BME280;34247;50.064;19.970;2022-10-16T05:02:50;99611.50;;;15.04;83.38
21086;BME280;34247;50.064;19.970;2022-10-16T05:03:54;99610.94;;;15.00;83.64
21086;BME280;34247;50.064;19.970;2022-10-16T05:04:57;99610.19;;;14.98;83.88
21086;BME280;34247;50.064;19.970;2022-10-16T05:06:01;99615.53;;;14.98;83.92
21086;BME280;34247;50.064;19.970;2022-10-16T05:07:08;99609.34;;;14.98;84.09
21086;BME280;34247;50.064;19.970;2022-10-16T05:08:14;99612.41;;;14.93;84.35
21086;BME280;34247;50.064;19.970;2022-10-16T05:09:18;99611.56;;;14.93;84.23
21086;BME280;34247;50.064;19.970;2022-10-16T05:10:22;99610.69;;;14.92;84.37
21086;BME280;34247;50.064;19.970;2022-10-16T05:11:26;99606.31;;;14.91;84.34
21086;BME280;34247;50.064;19.970;2022-10-16T05:12:30;99609.25;;;14.88;84.89
21086;BME280;34247;50.064;19.970;2022-10-16T05:13:35;99618.94;;;14.89;84.40
21086;BME280;34247;50.064;19.970;2022-10-16T05:14:38;99618.22;;;14.87;84.53
21086;BME280;34247;50.064;19.970;2022-10-16T05:15:47;99615.56;;;14.87;84.89
21086;BME280;34247;50.064;19.970;2022-10-16T05:16:52;99610.22;;;14.87;84.59
21086;BME280;34247;50.064;19.970;2022-10-16T05:17:56;99608.63;;;14.84;84.93
21086;BME280;34247;50.064;19.970;2022-10-16T05:19:00;99609.38;;;14.86;84.95
21086;BME280;34247;50.064;19.970;2022-10-16T05:20:24;99595.25;;;14.84;84.99
21086;BME280;34247;50.064;19.970;2022-10-16T05:21:28;99600.59;;;14.84;85.15
21086;BME280;34247;50.064;19.970;2022-10-16T05:22:31;99602.34;;;14.85;85.07
21086;BME280;34247;50.064;19.970;2022-10-16T05:23:36;99603.19;;;14.86;85.04
21086;BME280;34247;50.064;19.970;2022-10-16T05:24:40;99607.53;;;14.87;85.14
21086;BME280;34247;50.064;19.970;2022-10-16T05:25:55;99609.25;;;14.88;85.13
21086;BME280;34247;50.064;19.970;2022-10-16T05:27:01;99610.22;;;14.87;84.98
21086;BME280;34247;50.064;19.970;2022-10-16T05:28:05;99606.81;;;14.85;85.34
21086;BME280;34247;50.064;19.970;2022-10-16T05:29:11;99610.34;;;14.85;85.34
21086;BME280;34247;50.064;19.970;2022-10-16T05:30:17;99620.06;;;14.86;85.30
21086;BME280;34247;50.064;19.970;2022-10-16T05:31:21;99619.31;;;14.84;85.48
21086;BME280;34247;50.064;19.970;2022-10-16T05:32:26;99620.53;;;14.80;86.16
21086;BME280;34247;50.064;19.970;2022-10-16T05:33:29;99620.41;;;14.82;85.73
21086;BME280;34247;50.064;19.970;2022-10-16T05:34:33;99623.09;;;14.82;85.78
21086;BME280;34247;50.064;19.970;2022-10-16T05:35:37;99629.28;;;14.82;85.76
21086;BME280;34247;50.064;19.970;2022-10-16T05:36:41;99627.31;;;14.84;85.59
21086;BME280;34247;50.064;19.970;2022-10-16T05:37:45;99625.75;;;14.82;85.83
21086;BME280;34247;50.064;19.970;2022-10-16T05:38:51;99628.22;;;14.85;85.77
21086;BME280;34247;50.064;19.970;2022-10-16T05:39:55;99629.06;;;14.85;85.77
21086;BME280;34247;50.064;19.970;2022-10-16T05:40:59;99633.44;;;14.86;85.97
21086;BME280;34247;50.064;19.970;2022-10-16T05:42:04;99633.16;;;14.89;85.78
21086;BME280;34247;50.064;19.970;2022-10-16T05:43:10;99629.50;;;14.90;85.54
21086;BME280;34247;50.064;19.970;2022-10-16T05:44:14;99628.44;;;14.93;85.39
21086;BME280;34247;50.064;19.970;2022-10-16T05:45:18;99627.31;;;14.96;85.72
21086;BME280;34247;50.064;19.970;2022-10-16T05:46:22;99634.22;;;14.98;85.21
21086;BME280;34247;50.064;19.970;2022-10-16T05:47:26;99629.75;;;14.99;85.20
21086;BME280;34247;50.064;19.970;2022-10-16T05:48:33;99628.66;;;15.01;85.18
21086;BME280;34247;50.064;19.970;2022-10-16T05:49:37;99624.03;;;15.03;84.97
21086;BME280;34247;50.064;19.970;2022-10-16T05:50:43;99626.56;;;15.05;84.83
21086;BME280;34247;50.064;19.970;2022-10-16T05:51:47;99630.00;;;15.07;84.94
21086;BME280;34247;50.064;19.970;2022-10-16T05:52:51;99630.84;;;15.07;85.19
21086;BME280;34247;50.064;19.970;2022-10-16T05:53:55;99628.03;;;15.09;85.24
21086;BME280;34247;50.064;19.970;2022-10-16T05:54:59;99627.91;;;15.10;84.85
21086;BME280;34247;50.064;19.970;2022-10-16T05:56:05;99637.50;;;15.13;84.82
21086;BME280;34247;50.064;19.970;2022-10-16T05:57:11;99632.97;;;15.13;85.05
21086;BME280;34247;50.064;19.970;2022-10-16T05:58:15;99628.53;;;15.14;85.13
21086;BME280;34247;50.064;19.970;2022-10-16T05:59:18;99625.72;;;15.15;84.98
21086;BME280;34247;50.064;19.970;2022-10-16T06:00:22;99630.78;;;15.18;84.61
21086;BME280;34247;50.064;19.970;2022-10-16T06:01:26;99627.16;;;15.20;84.83
21086;BME280;34247;50.064;19.970;2022-10-16T06:02:30;99624.38;;;15.21;84.85
21086;BME280;34247;50.064;19.970;2022-10-16T06:03:35;99628.84;;;15.21;85.13
21086;BME280;34247;50.064;19.970;2022-10-16T06:04:38;99623.38;;;15.22;85.03
21086;BME280;34247;50.064;19.970;2022-10-16T06:05:42;99627.63;;;15.25;85.06
21086;BME280;34247;50.064;19.970;2022-10-16T06:06:46;99621.28;;;15.26;84.68
21086;BME280;34247;50.064;19.970;2022-10-16T06:07:50;99626.41;;;15.29;84.75
21086;BME280;34247;50.064;19.970;2022-10-16T06:08:55;99627.13;;;15.31;84.65
21086;BME280;34247;50.064;19.970;2022-10-16T06:09:59;99635.88;;;15.33;84.65
21086;BME280;34247;50.064;19.970;2022-10-16T06:11:06;99631.22;;;15.35;84.40
21086;BME280;34247;50.064;19.970;2022-10-16T06:12:11;99639.16;;;15.36;84.66
21086;BME280;34247;50.064;19.970;2022-10-16T06:13:15;99645.09;;;15.40;84.45
21086;BME280;34247;50.064;19.970;2022-10-16T06:14:19;99648.59;;;15.40;84.56